Time;durP1;ratioP1;P1;durP2;ratioP2;P2;SDS_P1;SDS_P2;PMS_P1;PMS_P2;Temp;Humidity;BMP_temperature;BMP_pressure;BME280_temperature;BME280_humidity;BME280_pressure;Samples;Min_cycle;Max_cycle;Signal;HPM_P1;HPM_P2
2024/02/24 00:02:02;;;;;;;;;;;;;;;;;;5031104;28;19929;-62
2024/02/24 00:04:28;;;;;;;;;;;;;;;;;;5029879;28;19936;-65
2024/02/24 00:06:54;;;;;;;;;;;;;;;;;;5027918;28;20305;-62
2024/02/24 00:09:20;;;;;;;;;;;;;;;;;;5029495;28;19921;-63
2024/02/24 00:11:46;;;;;;;;;;;;;;;;;;5031409;28;19925;-62
2024/02/24 00:14:12;;;;;;;;;;;;;;;;;;5031276;28;19925;-62
2024/02/24 00:16:38;;;;;;;;;;;;;;;;;;5031918;28;19921;-62
2024/02/24 00:19:05;;;;;;;;;;;;;;;;;;5034919;28;20371;-62
2024/02/24 00:21:31;;;;;;;;;;;;;;;;;;5035067;28;19992;-63
2024/02/24 00:23:57;;;;;;;;;;;;;;;;;;5032940;28;20302;-63
2024/02/24 00:26:23;;;;;;;;;;;;;;;;;;5035243;28;19971;-63
2024/02/24 00:28:49;;;;;;;;;;;;;;;;;;5033343;28;19971;-63
2024/02/24 00:31:14;;;;;;;;;;;;;;;;;;5033453;28;19929;-63
2024/02/24 00:33:40;;;;;;;;;;;;;;;;;;5034490;28;19986;-64
2024/02/24 00:36:06;;;;;;;;;;;;;;;;;;5032266;28;20390;-63
2024/02/24 00:38:32;;;;;;;;;;;;;;;;;;5026685;28;19921;-63
2024/02/24 00:40:58;;;;;;;;;;;;;;;;;;5034802;28;19971;-63
2024/02/24 00:43:24;;;;;;;;;;;;;;;;;;5034852;28;19987;-63
2024/02/24 00:45:50;;;;;;;;;;;;;;;;;;5034249;28;20354;-63
2024/02/24 00:48:16;;;;;;;;;;;;;;;;;;5034727;28;19921;-64
2024/02/24 00:50:42;;;;;;;;;;;;;;;;;;5034611;28;19929;-63
2024/02/24 00:53:08;;;;;;;;;;;;;;;;;;5034235;28;19943;-63
2024/02/24 00:55:33;;;;;;;;;;;;;;;;;;5032200;28;19983;-63
2024/02/24 00:57:59;;;;;;;;;;;;;;;;;;5034519;28;19921;-64
2024/02/24 01:00:25;;;;;;;;;;;;;;;;;;5032799;28;20483;-66
2024/02/24 01:02:51;;;;;;;;;;;;;;;;;;5034396;28;19921;-63
2024/02/24 01:05:18;;;;;;;;;;;;;;;;;;5032892;28;20282;-63
2024/02/24 01:07:44;;;;;;;;;;;;;;;;;;5034022;28;19933;-63
2024/02/24 01:10:10;;;;;;;;;;;;;;;;;;5031559;28;20023;-63
2024/02/24 01:12:36;;;;;;;;;;;;;;;;;;5034232;28;20347;-63
2024/02/24 01:15:02;;;;;;;;;;;;;;;;;;5032586;28;19925;-64
2024/02/24 01:17:28;;;;;;;;;;;;;;;;;;5034035;28;19943;-63
2024/02/24 01:19:54;;;;;;;;;;;;;;;;;;5034148;28;19995;-63
2024/02/24 01:22:20;;;;;;;;;;;;;;;;;;5033739;28;19944;-63
2024/02/24 01:24:46;;;;;;;;;;;;;;;;;;5031897;28;19944;-63
2024/02/24 01:27:12;;;;;;;;;;;;;;;;;;5031768;28;19928;-63
2024/02/24 01:29:38;;;;;;;;;;;;;;;;;;5031294;28;20012;-64
2024/02/24 01:32:04;;;;;;;;;;;;;;;;;;5032892;28;19921;-63
2024/02/24 01:34:30;;;;;;;;;;;;;;;;;;5031393;28;19929;-64
2024/02/24 01:36:56;;;;;;;;;;;;;;;;;;5026935;28;19931;-63
2024/02/24 01:39:22;;;;;;;;;;;;;;;;;;5033472;28;19921;-63
2024/02/24 01:41:48;;;;;;;;;;;;;;;;;;5029958;28;19971;-63
2024/02/24 01:44:18;;;;;;;;;;;;;;;;;;5033084;28;20291;-63
2024/02/24 01:46:44;;;;;;;;;;;;;;;;;;5026638;28;19979;-63
2024/02/24 01:49:10;;;;;;;;;;;;;;;;;;5033325;28;19968;-64
2024/02/24 01:51:35;;;;;;;;;;;;;;;;;;5033076;28;20012;-63
2024/02/24 01:54:03;;;;;;;;;;;;;;;;;;5033232;28;20351;-63
2024/02/24 01:56:29;;;;;;;;;;;;;;;;;;5033089;28;19940;-63
2024/02/24 01:58:54;;;;;;;;;;;;;;;;;;5031332;28;20290;-63
2024/02/24 02:01:20;;;;;;;;;;;;;;;;;;5032829;28;20015;-63
2024/02/24 02:03:46;;;;;;;;;;;;;;;;;;5033136;28;20016;-63
2024/02/24 02:06:12;;;;;;;;;;;;;;;;;;5033170;28;20378;-63
2024/02/24 02:08:38;;;;;;;;;;;;;;;;;;5032880;28;19922;-63
2024/02/24 02:11:04;;;;;;;;;;;;;;;;;;5032729;28;19928;-63
2024/02/24 02:13:30;;;;;;;;;;;;;;;;;;5031148;28;19925;-63
2024/02/24 02:15:56;;;;;;;;;;;;;;;;;;5032762;28;20007;-63
2024/02/24 02:18:22;;;;;;;;;;;;;;;;;;5023786;28;20016;-63
2024/02/24 02:20:48;;;;;;;;;;;;;;;;;;5014194;28;19961;-63
2024/02/24 02:23:14;;;;;;;;;;;;;;;;;;5031831;28;20020;-63
2024/02/24 02:25:40;;;;;;;;;;;;;;;;;;5032662;28;19932;-63
2024/02/24 02:28:06;;;;;;;;;;;;;;;;;;5030539;28;19921;-63
2024/02/24 02:30:32;;;;;;;;;;;;;;;;;;5032593;28;20027;-63
2024/02/24 02:32:58;;;;;;;;;;;;;;;;;;5024530;28;20322;-63
2024/02/24 02:35:24;;;;;;;;;;;;;;;;;;5026633;28;19929;-63
2024/02/24 02:37:50;;;;;;;;;;;;;;;;;;5028243;28;19928;-63
2024/02/24 02:40:15;;;;;;;;;;;;;;;;;;5031191;28;19932;-63
2024/02/24 02:42:41;;;;;;;;;;;;;;;;;;5032026;28;19921;-63
2024/02/24 02:45:07;;;;;;;;;;;;;;;;;;5028374;28;20004;-63
2024/02/24 02:47:33;;;;;;;;;;;;;;;;;;5013879;28;19996;-63
2024/02/24 02:49:59;;;;;;;;;;;;;;;;;;5012124;28;20386;-63
2024/02/24 02:52:25;;;;;;;;;;;;;;;;;;5028313;28;20334;-63
2024/02/24 02:54:51;;;;;;;;;;;;;;;;;;5028141;28;20005;-63
2024/02/24 02:57:17;;;;;;;;;;;;;;;;;;5031583;28;19979;-63
2024/02/24 02:59:43;;;;;;;;;;;;;;;;;;5032090;28;20406;-63
2024/02/24 03:02:09;;;;;;;;;;;;;;;;;;5030197;28;19957;-63
2024/02/24 03:04:35;;;;;;;;;;;;;;;;;;5027110;28;19964;-63
2024/02/24 03:07:01;;;;;;;;;;;;;;;;;;5031628;28;19948;-63
2024/02/24 03:09:27;;;;;;;;;;;;;;;;;;5026890;28;19925;-63
2024/02/24 03:11:53;;;;;;;;;;;;;;;;;;5030148;28;19932;-63
2024/02/24 03:14:18;;;;;;;;;;;;;;;;;;5031814;28;19925;-63
2024/02/24 03:16:44;;;;;;;;;;;;;;;;;;5027328;28;19925;-63
2024/02/24 03:19:10;;;;;;;;;;;;;;;;;;5031178;28;19931;-63
2024/02/24 03:21:36;;;;;;;;;;;;;;;;;;5031983;28;19939;-63
2024/02/24 03:24:02;;;;;;;;;;;;;;;;;;5030041;28;19921;-63
2024/02/24 03:26:28;;;;;;;;;;;;;;;;;;5029649;28;20016;-63
2024/02/24 03:28:54;;;;;;;;;;;;;;;;;;5030633;28;19941;-63
2024/02/24 03:31:20;;;;;;;;;;;;;;;;;;5031883;28;20362;-63
2024/02/24 03:33:46;;;;;;;;;;;;;;;;;;5026981;28;19921;-63
2024/02/24 03:36:12;;;;;;;;;;;;;;;;;;5030406;28;19921;-63
2024/02/24 03:38:38;;;;;;;;;;;;;;;;;;5023110;28;20275;-63
2024/02/24 03:41:03;;;;;;;;;;;;;;;;;;5029256;28;19942;-63
2024/02/24 03:43:29;;;;;;;;;;;;;;;;;;5031381;28;19921;-63
2024/02/24 03:45:55;;;;;;;;;;;;;;;;;;5020884;28;19928;-63
2024/02/24 03:48:22;;;;;;;;;;;;;;;;;;5011858;28;19925;-63
2024/02/24 03:50:48;;;;;;;;;;;;;;;;;;5012508;28;19925;-63
2024/02/24 03:53:14;;;;;;;;;;;;;;;;;;5015570;28;20795;-63
2024/02/24 03:55:40;;;;;;;;;;;;;;;;;;5034724;28;20391;-63
2024/02/24 03:58:06;;;;;;;;;;;;;;;;;;5035299;28;19921;-63
2024/02/24 04:00:34;;;;;;;;;;;;;;;;;;5035409;28;19921;-63
2024/02/24 04:03:00;;;;;;;;;;;;;;;;;;5034996;28;20367;-63
2024/02/24 04:05:26;;;;;;;;;;;;;;;;;;5033992;28;19933;-63
2024/02/24 04:07:52;;;;;;;;;;;;;;;;;;5035019;28;19928;-63
2024/02/24 04:10:18;;;;;;;;;;;;;;;;;;5024476;28;19947;-63
2024/02/24 04:12:44;;;;;;;;;;;;;;;;;;5033010;28;20371;-63
2024/02/24 04:15:12;;;;;;;;;;;;;;;;;;5034403;28;19925;-63
2024/02/24 04:17:38;;;;;;;;;;;;;;;;;;5032404;28;19932;-63
2024/02/24 04:20:04;;;;;;;;;;;;;;;;;;5034121;28;19925;-63
2024/02/24 04:22:30;;;;;;;;;;;;;;;;;;5033999;28;20326;-63
2024/02/24 04:24:56;;;;;;;;;;;;;;;;;;5033951;28;19925;-63
2024/02/24 04:27:22;;;;;;;;;;;;;;;;;;5031997;28;19925;-63
2024/02/24 04:29:48;;;;;;;;;;;;;;;;;;5032597;28;19925;-63
2024/02/24 04:32:14;;;;;;;;;;;;;;;;;;5033302;28;19950;-63
2024/02/24 04:34:40;;;;;;;;;;;;;;;;;;5016015;28;20638;-63
2024/02/24 04:37:06;;;;;;;;;;;;;;;;;;5021908;28;20056;-63
2024/02/24 04:39:31;;;;;;;;;;;;;;;;;;5032465;28;20007;-63
2024/02/24 04:41:57;;;;;;;;;;;;;;;;;;5031197;28;20012;-63
2024/02/24 04:44:23;;;;;;;;;;;;;;;;;;5034331;28;20675;-63
2024/02/24 04:46:49;;;;;;;;;;;;;;;;;;5023240;28;19930;-63
2024/02/24 04:49:15;;;;;;;;;;;;;;;;;;5015075;28;20024;-63
2024/02/24 04:51:41;;;;;;;;;;;;;;;;;;5034613;28;19952;-63
2024/02/24 04:54:07;;;;;;;;;;;;;;;;;;5034406;28;19999;-63
2024/02/24 04:56:33;;;;;;;;;;;;;;;;;;5031082;28;20394;-63
2024/02/24 04:58:59;;;;;;;;;;;;;;;;;;5034322;28;19995;-63
2024/02/24 05:01:25;;;;;;;;;;;;;;;;;;5033576;28;19975;-63
2024/02/24 05:03:50;;;;;;;;;;;;;;;;;;5032069;28;19953;-61
2024/02/24 05:06:16;;;;;;;;;;;;;;;;;;5031698;28;20534;-62
2024/02/24 05:08:43;;;;;;;;;;;;;;;;;;5033654;28;20268;-63
2024/02/24 05:11:09;;;;;;;;;;;;;;;;;;5033657;28;20048;-61
2024/02/24 05:13:35;;;;;;;;;;;;;;;;;;5034173;28;20581;-61
2024/02/24 05:16:03;;;;;;;;;;;;;;;;;;5034338;28;20047;-62
2024/02/24 05:18:29;;;;;;;;;;;;;;;;;;5021857;28;20015;-62
2024/02/24 05:20:55;;;;;;;;;;;;;;;;;;5031246;28;20422;-62
2024/02/24 05:23:21;;;;;;;;;;;;;;;;;;5028977;28;19928;-62
2024/02/24 05:25:47;;;;;;;;;;;;;;;;;;5033509;28;19925;-62
2024/02/24 05:28:13;;;;;;;;;;;;;;;;;;5033431;28;19921;-68
2024/02/24 05:30:38;;;;;;;;;;;;;;;;;;5033714;28;19975;-63
2024/02/24 05:33:04;;;;;;;;;;;;;;;;;;5029774;28;20569;-62
2024/02/24 05:35:30;;;;;;;;;;;;;;;;;;5030496;28;19971;-63
2024/02/24 05:37:56;;;;;;;;;;;;;;;;;;5032407;28;20029;-63
2024/02/24 05:40:22;;;;;;;;;;;;;;;;;;5029046;28;19948;-61
2024/02/24 05:42:48;;;;;;;;;;;;;;;;;;5031900;28;19925;-61
2024/02/24 05:45:14;;;;;;;;;;;;;;;;;;5031897;28;20007;-62
2024/02/24 05:47:40;;;;;;;;;;;;;;;;;;5032210;28;19921;-62
2024/02/24 05:50:06;;;;;;;;;;;;;;;;;;5046847;28;20795;-62
2024/02/24 05:52:32;;;;;;;;;;;;;;;;;;5033155;28;19925;-62
2024/02/24 05:54:58;;;;;;;;;;;;;;;;;;5033345;28;19932;-62
2024/02/24 05:57:24;;;;;;;;;;;;;;;;;;5032937;28;19925;-63
2024/02/24 05:59:50;;;;;;;;;;;;;;;;;;5031535;28;19921;-63
2024/02/24 06:02:16;;;;;;;;;;;;;;;;;;5031008;28;19948;-63
2024/02/24 06:04:42;;;;;;;;;;;;;;;;;;5033078;28;20008;-63
2024/02/24 06:07:08;;;;;;;;;;;;;;;;;;5033276;28;19928;-63
2024/02/24 06:09:34;;;;;;;;;;;;;;;;;;5032603;28;19921;-63
2024/02/24 06:12:00;;;;;;;;;;;;;;;;;;5031499;28;20294;-63
2024/02/24 06:14:26;;;;;;;;;;;;;;;;;;5032215;28;19921;-63
2024/02/24 06:16:52;;;;;;;;;;;;;;;;;;5031000;28;20337;-63
2024/02/24 06:19:18;;;;;;;;;;;;;;;;;;5032269;28;19929;-63
2024/02/24 06:21:44;;;;;;;;;;;;;;;;;;5031235;28;19939;-63
2024/02/24 06:24:09;;;;;;;;;;;;;;;;;;5032573;28;20007;-63
2024/02/24 06:26:35;;;;;;;;;;;;;;;;;;5056909;22;19925;-63
2024/02/24 06:29:01;;;;;;;;;;;;;;;;;;5051229;28;19928;-64
2024/02/24 06:31:27;;;;;;;;;;;;;;;;;;5048913;28;19921;-64
2024/02/24 06:33:53;;;;;;;;;;;;;;;;;;5052770;28;19925;-64
2024/02/24 06:36:19;;;;;;;;;;;;;;;;;;5051870;28;20407;-63
2024/02/24 06:38:45;;;;;;;;;;;;;;;;;;5052139;28;19952;-63
2024/02/24 06:41:12;;;;;;;;;;;;;;;;;;5050348;28;19964;-63
2024/02/24 06:43:38;;;;;;;;;;;;;;;;;;5051134;28;20330;-63
2024/02/24 06:46:04;;;;;;;;;;;;;;;;;;5048185;28;19956;-63
2024/02/24 06:48:30;;;;;;;;;;;;;;;;;;5051399;28;20010;-63
2024/02/24 06:50:55;;;;;;;;;;;;;;;;;;5050269;28;20020;-63
2024/02/24 06:53:23;;;;;;;;;;;;;;;;;;5051464;28;20301;-63
2024/02/24 06:55:49;;;;;;;;;;;;;;;;;;5067577;28;20022;-63
2024/02/24 06:58:15;;;;;;;;;;;;;;;;;;5052195;28;19952;-63
2024/02/24 07:00:41;;;;;;;;;;;;;;;;;;5046045;28;20023;-63
2024/02/24 07:03:07;;;;;;;;;;;;;;;;;;5032288;28;19921;-64
2024/02/24 07:05:33;;;;;;;;;;;;;;;;;;5049128;28;20322;-64
2024/02/24 07:07:59;;;;;;;;;;;;;;;;;;5051738;28;19921;-64
2024/02/24 07:10:25;;;;;;;;;;;;;;;;;;5033493;28;19931;-63
2024/02/24 07:12:50;;;;;;;;;;;;;;;;;;5051837;28;19960;-64
2024/02/24 07:15:16;;;;;;;;;;;;;;;;;;5051806;28;19921;-64
2024/02/24 07:17:42;;;;;;;;;;;;;;;;;;5051957;28;20219;-64
2024/02/24 07:20:08;;;;;;;;;;;;;;;;;;5051794;28;19975;-64
2024/02/24 07:22:34;;;;;;;;;;;;;;;;;;5049323;28;19956;-64
2024/02/24 07:25:00;;;;;;;;;;;;;;;;;;5050926;28;20389;-64
2024/02/24 07:27:26;;;;;;;;;;;;;;;;;;5041354;28;19956;-64
2024/02/24 07:29:53;;;;;;;;;;;;;;;;;;5051759;28;20274;-64
2024/02/24 07:32:19;;;;;;;;;;;;;;;;;;5050051;28;19979;-64
2024/02/24 07:34:45;;;;;;;;;;;;;;;;;;5047852;28;19974;-63
2024/02/24 07:37:11;;;;;;;;;;;;;;;;;;5039590;28;20473;-63
2024/02/24 07:39:38;;;;;;;;;;;;;;;;;;5064527;28;19933;-64
2024/02/24 07:42:03;;;;;;;;;;;;;;;;;;5048650;28;19925;-64
2024/02/24 07:44:29;;;;;;;;;;;;;;;;;;5050572;28;19924;-64
2024/02/24 07:46:55;;;;;;;;;;;;;;;;;;5058729;28;19986;-64
2024/02/24 07:49:21;;;;;;;;;;;;;;;;;;5050016;28;20409;-64
2024/02/24 07:51:47;;;;;;;;;;;;;;;;;;5047793;28;19928;-64
2024/02/24 07:54:13;;;;;;;;;;;;;;;;;;5048030;28;20016;-64
2024/02/24 07:56:39;;;;;;;;;;;;;;;;;;5051006;28;19928;-64
2024/02/24 07:59:05;;;;;;;;;;;;;;;;;;5051527;28;19920;-64
2024/02/24 08:01:31;;;;;;;;;;;;;;;;;;5051330;28;19974;-64
2024/02/24 08:03:57;;;;;;;;;;;;;;;;;;5051369;28;19927;-64
2024/02/24 08:06:23;;;;;;;;;;;;;;;;;;5064735;28;19927;-63
2024/02/24 08:08:49;;;;;;;;;;;;;;;;;;5051456;28;19931;-63
2024/02/24 08:11:15;;;;;;;;;;;;;;;;;;5049707;28;19986;-63
2024/02/24 08:13:43;;;;;;;;;;;;;;;;;;5050794;28;19927;-63
2024/02/24 08:16:09;;;;;;;;;;;;;;;;;;5047462;28;19925;-63
2024/02/24 08:18:35;;;;;;;;;;;;;;;;;;5050728;28;20441;-63
2024/02/24 08:21:01;;;;;;;;;;;;;;;;;;5049443;28;20012;-63
2024/02/24 08:23:27;;;;;;;;;;;;;;;;;;5049536;28;20019;-64
2024/02/24 08:25:53;;;;;;;;;;;;;;;;;;5050886;28;20007;-63
2024/02/24 08:28:19;;;;;;;;;;;;;;;;;;5039240;28;20455;-63
2024/02/24 08:30:45;;;;;;;;;;;;;;;;;;5035626;28;19924;-63
2024/02/24 08:33:11;;;;;;;;;;;;;;;;;;5049703;28;20329;-63
2024/02/24 08:35:37;;;;;;;;;;;;;;;;;;5050653;28;19921;-63
2024/02/24 08:38:03;;;;;;;;;;;;;;;;;;5050226;28;19975;-63
2024/02/24 08:40:29;;;;;;;;;;;;;;;;;;5054812;28;19928;-63
2024/02/24 08:42:55;;;;;;;;;;;;;;;;;;5053021;28;20286;-63
2024/02/24 08:45:21;;;;;;;;;;;;;;;;;;5053213;28;19921;-63
2024/02/24 08:47:47;;;;;;;;;;;;;;;;;;5054026;28;19925;-63
2024/02/24 08:50:14;;;;;;;;;;;;;;;;;;5053996;28;19966;-63
2024/02/24 08:52:40;;;;;;;;;;;;;;;;;;5038744;28;20019;-63
2024/02/24 08:55:06;;;;;;;;;;;;;;;;;;5045215;28;20322;-63
2024/02/24 08:57:32;;;;;;;;;;;;;;;;;;5054193;28;20008;-63
2024/02/24 08:59:58;;;;;;;;;;;;;;;;;;5036050;28;20003;-63
2024/02/24 09:02:24;;;;;;;;;;;;;;;;;;5053666;28;19963;-63
2024/02/24 09:04:49;;;;;;;;;;;;;;;;;;5053022;28;19991;-63
2024/02/24 09:07:15;;;;;;;;;;;;;;;;;;5052431;28;20554;-63
2024/02/24 09:09:41;;;;;;;;;;;;;;;;;;5052894;28;20469;-63
2024/02/24 09:12:07;;;;;;;;;;;;;;;;;;5046712;28;19976;-63
2024/02/24 09:14:33;;;;;;;;;;;;;;;;;;5033617;28;19987;-63
2024/02/24 09:16:59;;;;;;;;;;;;;;;;;;5037302;28;20394;-63
2024/02/24 09:19:26;;;;;;;;;;;;;;;;;;5034647;28;19960;-63
2024/02/24 09:21:52;;;;;;;;;;;;;;;;;;5039543;28;19932;-63
2024/02/24 09:24:17;;;;;;;;;;;;;;;;;;5040792;28;19925;-64
2024/02/24 09:26:43;;;;;;;;;;;;;;;;;;5049857;28;20288;-63
2024/02/24 09:29:09;;;;;;;;;;;;;;;;;;5052463;28;19935;-64
2024/02/24 09:31:35;;;;;;;;;;;;;;;;;;5052202;28;19929;-63
2024/02/24 09:34:02;;;;;;;;;;;;;;;;;;5052072;28;19928;-63
2024/02/24 09:36:27;;;;;;;;;;;;;;;;;;5036690;28;19925;-63
2024/02/24 09:38:53;;;;;;;;;;;;;;;;;;5038052;28;20611;-64
2024/02/24 09:41:19;;;;;;;;;;;;;;;;;;5052578;28;19947;-64
2024/02/24 09:43:45;;;;;;;;;;;;;;;;;;5049241;28;20383;-63
2024/02/24 09:46:11;;;;;;;;;;;;;;;;;;5046888;28;19928;-64
2024/02/24 09:48:38;;;;;;;;;;;;;;;;;;5046845;28;20396;-63
2024/02/24 09:51:04;;;;;;;;;;;;;;;;;;5053097;28;19933;-63
2024/02/24 09:53:30;;;;;;;;;;;;;;;;;;5052928;28;20336;-63
2024/02/24 09:55:56;;;;;;;;;;;;;;;;;;5051680;28;19967;-63
2024/02/24 09:58:22;;;;;;;;;;;;;;;;;;5053221;28;20461;-64
2024/02/24 10:00:48;;;;;;;;;;;;;;;;;;5052852;28;19921;-63
2024/02/24 10:03:14;;;;;;;;;;;;;;;;;;5033215;28;19970;-63
2024/02/24 10:05:41;;;;;;;;;;;;;;;;;;5033323;28;20004;-64
2024/02/24 10:08:07;;;;;;;;;;;;;;;;;;5044123;28;20028;-64
2024/02/24 10:10:33;;;;;;;;;;;;;;;;;;5047184;28;20016;-64
2024/02/24 10:12:59;;;;;;;;;;;;;;;;;;5049170;28;20011;-62
2024/02/24 10:15:25;;;;;;;;;;;;;;;;;;5052578;28;20422;-64
2024/02/24 10:17:51;;;;;;;;;;;;;;;;;;5052245;28;19970;-63
2024/02/24 10:20:16;;;;;;;;;;;;;;;;;;5051995;28;19924;-63
2024/02/24 10:22:42;;;;;;;;;;;;;;;;;;5051229;28;19970;-63
2024/02/24 10:25:08;;;;;;;;;;;;;;;;;;5052111;28;19925;-63
2024/02/24 10:27:34;;;;;;;;;;;;;;;;;;5051117;28;20482;-63
2024/02/24 10:30:02;;;;;;;;;;;;;;;;;;5051555;28;19971;-63
2024/02/24 10:32:28;;;;;;;;;;;;;;;;;;5051532;28;20362;-63
2024/02/24 10:34:54;;;;;;;;;;;;;;;;;;5050864;28;19928;-64
2024/02/24 10:37:20;;;;;;;;;;;;;;;;;;5052413;28;19974;-63
2024/02/24 10:39:46;;;;;;;;;;;;;;;;;;5052205;28;19967;-63
2024/02/24 10:42:12;;;;;;;;;;;;;;;;;;5052235;28;20020;-63
2024/02/24 10:44:38;;;;;;;;;;;;;;;;;;5061621;28;19999;-63
2024/02/24 10:47:04;;;;;;;;;;;;;;;;;;5046336;28;19921;-63
2024/02/24 10:49:30;;;;;;;;;;;;;;;;;;5050190;28;20585;-64
2024/02/24 10:51:56;;;;;;;;;;;;;;;;;;5043476;28;20342;-64
2024/02/24 10:54:22;;;;;;;;;;;;;;;;;;5031219;28;20305;-64
2024/02/24 10:56:48;;;;;;;;;;;;;;;;;;5031789;28;19921;-64
2024/02/24 10:59:14;;;;;;;;;;;;;;;;;;5038390;28;20023;-64
2024/02/24 11:01:40;;;;;;;;;;;;;;;;;;5044925;28;20004;-64
2024/02/24 11:04:09;;;;;;;;;;;;;;;;;;5051941;28;19921;-63
2024/02/24 11:06:35;;;;;;;;;;;;;;;;;;5013934;28;19932;-64
2024/02/24 11:09:01;;;;;;;;;;;;;;;;;;5050543;28;19921;-64
2024/02/24 11:11:27;;;;;;;;;;;;;;;;;;5050627;28;20435;-64
2024/02/24 11:13:53;;;;;;;;;;;;;;;;;;5033740;28;19928;-64
2024/02/24 11:16:20;;;;;;;;;;;;;;;;;;5038163;28;19925;-64
2024/02/24 11:18:46;;;;;;;;;;;;;;;;;;5039768;28;20296;-64
2024/02/24 11:21:12;;;;;;;;;;;;;;;;;;5040712;28;19932;-64
2024/02/24 11:23:42;;;;;;;;;;;;;;;;;;5030356;28;19932;-64
2024/02/24 11:26:08;;;;;;;;;;;;;;;;;;5044851;28;19988;-63
2024/02/24 11:28:34;;;;;;;;;;;;;;;;;;5032990;28;19978;-64
2024/02/24 11:31:00;;;;;;;;;;;;;;;;;;5031781;28;20012;-64
2024/02/24 11:33:26;;;;;;;;;;;;;;;;;;5045199;28;19928;-64
2024/02/24 11:35:53;;;;;;;;;;;;;;;;;;5050668;28;19924;-64
2024/02/24 11:38:19;;;;;;;;;;;;;;;;;;5042980;28;20598;-64
2024/02/24 11:40:49;;;;;;;;;;;;;;;;;;5032359;28;20393;-65
2024/02/24 11:43:14;;;;;;;;;;;;;;;;;;5047581;28;19928;-64
2024/02/24 11:45:40;;;;;;;;;;;;;;;;;;5047093;28;19929;-64
2024/02/24 11:48:06;;;;;;;;;;;;;;;;;;5048635;28;20003;-65
2024/02/24 11:50:32;;;;;;;;;;;;;;;;;;5051384;28;19960;-65
2024/02/24 11:52:58;;;;;;;;;;;;;;;;;;5044057;28;19979;-66
2024/02/24 11:55:24;;;;;;;;;;;;;;;;;;5040530;28;19947;-65
2024/02/24 11:57:50;;;;;;;;;;;;;;;;;;5051182;28;20573;-66
2024/02/24 12:00:16;;;;;;;;;;;;;;;;;;5050136;28;20015;-65
2024/02/24 12:02:42;;;;;;;;;;;;;;;;;;5051851;28;20059;-66
2024/02/24 12:05:08;;;;;;;;;;;;;;;;;;5045664;28;20373;-65
2024/02/24 12:07:34;;;;;;;;;;;;;;;;;;5051075;28;20015;-66
2024/02/24 12:10:04;;;;;;;;;;;;;;;;;;5050571;28;20353;-65
2024/02/24 12:12:29;;;;;;;;;;;;;;;;;;5044601;28;20267;-67
2024/02/24 12:14:55;;;;;;;;;;;;;;;;;;5055171;28;19958;-66
2024/02/24 12:17:21;;;;;;;;;;;;;;;;;;5053066;28;19925;-66
2024/02/24 12:19:47;;;;;;;;;;;;;;;;;;5044902;28;19921;-67
2024/02/24 12:22:13;;;;;;;;;;;;;;;;;;5034711;28;19921;-66
2024/02/24 12:24:39;;;;;;;;;;;;;;;;;;5034356;28;19933;-66
2024/02/24 12:27:08;;;;;;;;;;;;;;;;;;5043642;28;19925;-67
2024/02/24 12:29:34;;;;;;;;;;;;;;;;;;5054448;28;19927;-67
2024/02/24 12:32:00;;;;;;;;;;;;;;;;;;5054462;28;19952;-67
2024/02/24 12:34:26;;;;;;;;;;;;;;;;;;5048929;28;19925;-66
2024/02/24 12:36:52;;;;;;;;;;;;;;;;;;5032481;28;20305;-66
2024/02/24 12:39:18;;;;;;;;;;;;;;;;;;5032425;28;19921;-66
2024/02/24 12:41:44;;;;;;;;;;;;;;;;;;5038082;28;20765;-66
2024/02/24 12:44:10;;;;;;;;;;;;;;;;;;5053373;28;19982;-65
2024/02/24 12:46:36;;;;;;;;;;;;;;;;;;5052205;28;19928;-65
2024/02/24 12:49:02;;;;;;;;;;;;;;;;;;5050920;28;19920;-66
2024/02/24 12:51:28;;;;;;;;;;;;;;;;;;5036607;28;20015;-65
2024/02/24 12:53:57;;;;;;;;;;;;;;;;;;5038140;28;19925;-65
2024/02/24 12:56:23;;;;;;;;;;;;;;;;;;5035282;28;20270;-65
2024/02/24 12:58:49;;;;;;;;;;;;;;;;;;5038650;28;20390;-66
2024/02/24 13:01:15;;;;;;;;;;;;;;;;;;5033593;28;19974;-66
2024/02/24 13:03:41;;;;;;;;;;;;;;;;;;5045574;28;19927;-65
2024/02/24 13:06:09;;;;;;;;;;;;;;;;;;5042772;28;19921;-66
2024/02/24 13:08:35;;;;;;;;;;;;;;;;;;5053151;28;20281;-66
2024/02/24 13:11:01;;;;;;;;;;;;;;;;;;5053543;28;19973;-65
2024/02/24 13:13:27;;;;;;;;;;;;;;;;;;5052981;28;19932;-66
2024/02/24 13:15:53;;;;;;;;;;;;;;;;;;5049562;28;19987;-66
2024/02/24 13:18:19;;;;;;;;;;;;;;;;;;5047541;28;20029;-67
2024/02/24 13:20:45;;;;;;;;;;;;;;;;;;5051764;28;19932;-66
2024/02/24 13:23:11;;;;;;;;;;;;;;;;;;5050642;28;20152;-66
2024/02/24 13:25:36;;;;;;;;;;;;;;;;;;5033814;28;19975;-66
2024/02/24 13:28:03;;;;;;;;;;;;;;;;;;5051902;28;19928;-66
2024/02/24 13:30:29;;;;;;;;;;;;;;;;;;5045066;28;20031;-66
2024/02/24 13:32:55;;;;;;;;;;;;;;;;;;5034356;28;20011;-66
2024/02/24 13:35:21;;;;;;;;;;;;;;;;;;5043533;28;20017;-66
2024/02/24 13:37:47;;;;;;;;;;;;;;;;;;5053150;28;20363;-66
2024/02/24 13:40:13;;;;;;;;;;;;;;;;;;5052200;28;20015;-66
2024/02/24 13:42:39;;;;;;;;;;;;;;;;;;5052800;28;20004;-66
2024/02/24 13:45:05;;;;;;;;;;;;;;;;;;5045743;28;19925;-66
2024/02/24 13:47:31;;;;;;;;;;;;;;;;;;5040470;28;20405;-66
2024/02/24 13:50:00;;;;;;;;;;;;;;;;;;5049058;28;19948;-67
2024/02/24 13:52:27;;;;;;;;;;;;;;;;;;5031513;28;19929;-66
2024/02/24 13:54:52;;;;;;;;;;;;;;;;;;5050545;28;20379;-66
2024/02/24 13:57:18;;;;;;;;;;;;;;;;;;5052968;28;19928;-66
2024/02/24 13:59:44;;;;;;;;;;;;;;;;;;5048164;28;19925;-67
2024/02/24 14:02:10;;;;;;;;;;;;;;;;;;5050650;28;19964;-66
2024/02/24 14:04:36;;;;;;;;;;;;;;;;;;5052733;28;19970;-66
2024/02/24 14:07:02;;;;;;;;;;;;;;;;;;5052383;28;19960;-66
2024/02/24 14:09:28;;;;;;;;;;;;;;;;;;5052494;28;20000;-66
2024/02/24 14:11:54;;;;;;;;;;;;;;;;;;5052495;28;19931;-65
2024/02/24 14:14:20;;;;;;;;;;;;;;;;;;5051797;28;19936;-65
2024/02/24 14:16:47;;;;;;;;;;;;;;;;;;5051914;28;19920;-65
2024/02/24 14:19:13;;;;;;;;;;;;;;;;;;5051467;28;19947;-65
2024/02/24 14:21:38;;;;;;;;;;;;;;;;;;5052122;28;20380;-65
2024/02/24 14:24:04;;;;;;;;;;;;;;;;;;5046742;28;19921;-65
2024/02/24 14:26:30;;;;;;;;;;;;;;;;;;5039406;28;19929;-65
2024/02/24 14:28:56;;;;;;;;;;;;;;;;;;5049852;28;19924;-66
2024/02/24 14:31:23;;;;;;;;;;;;;;;;;;5051104;28;19924;-66
2024/02/24 14:33:48;;;;;;;;;;;;;;;;;;5066170;28;20400;-65
2024/02/24 14:36:14;;;;;;;;;;;;;;;;;;5066112;28;20015;-66
2024/02/24 14:38:40;;;;;;;;;;;;;;;;;;5049149;28;20051;-66
2024/02/24 14:41:06;;;;;;;;;;;;;;;;;;5052432;28;19927;-66
2024/02/24 14:43:32;;;;;;;;;;;;;;;;;;5051669;28;19974;-66
2024/02/24 14:45:58;;;;;;;;;;;;;;;;;;5052181;28;19920;-66
2024/02/24 14:48:24;;;;;;;;;;;;;;;;;;5050805;28;19925;-66
2024/02/24 14:50:50;;;;;;;;;;;;;;;;;;5051594;28;20558;-66
2024/02/24 14:53:16;;;;;;;;;;;;;;;;;;5051448;28;19920;-66
2024/02/24 14:55:42;;;;;;;;;;;;;;;;;;5051932;28;20305;-67
2024/02/24 14:58:08;;;;;;;;;;;;;;;;;;5050627;28;19924;-66
2024/02/24 15:00:34;;;;;;;;;;;;;;;;;;5067336;28;19928;-66
2024/02/24 15:03:00;;;;;;;;;;;;;;;;;;5051737;28;19920;-66
2024/02/24 15:05:26;;;;;;;;;;;;;;;;;;5051804;28;19924;-65
2024/02/24 15:07:52;;;;;;;;;;;;;;;;;;5051878;28;19921;-65
2024/02/24 15:10:18;;;;;;;;;;;;;;;;;;5051309;28;19971;-65
2024/02/24 15:12:44;;;;;;;;;;;;;;;;;;5050166;28;19936;-65
2024/02/24 15:15:10;;;;;;;;;;;;;;;;;;5051615;28;19944;-67
2024/02/24 15:17:36;;;;;;;;;;;;;;;;;;5039452;28;19932;-66
2024/02/24 15:20:02;;;;;;;;;;;;;;;;;;5042424;28;19921;-65
2024/02/24 15:22:28;;;;;;;;;;;;;;;;;;5030554;28;19974;-67
2024/02/24 15:24:54;;;;;;;;;;;;;;;;;;5034685;28;19928;-66
2024/02/24 15:27:20;;;;;;;;;;;;;;;;;;5047158;28;19921;-65
2024/02/24 15:29:46;;;;;;;;;;;;;;;;;;5040762;28;20488;-65
2024/02/24 15:32:12;;;;;;;;;;;;;;;;;;5049751;28;19929;-66
2024/02/24 15:34:38;;;;;;;;;;;;;;;;;;5038500;28;20378;-66
2024/02/24 15:37:04;;;;;;;;;;;;;;;;;;5051425;28;19921;-66
2024/02/24 15:39:30;;;;;;;;;;;;;;;;;;5051210;28;19936;-66
2024/02/24 15:41:56;;;;;;;;;;;;;;;;;;5047401;28;20369;-63
2024/02/24 15:44:22;;;;;;;;;;;;;;;;;;5051094;28;19925;-63
2024/02/24 15:46:48;;;;;;;;;;;;;;;;;;5036846;28;19928;-63
2024/02/24 15:49:14;;;;;;;;;;;;;;;;;;5038901;28;20007;-63
2024/02/24 15:51:40;;;;;;;;;;;;;;;;;;5046279;28;19933;-63
2024/02/24 15:54:06;;;;;;;;;;;;;;;;;;5051079;28;19920;-63
2024/02/24 15:56:32;;;;;;;;;;;;;;;;;;5054910;28;20324;-63
2024/02/24 15:58:57;;;;;;;;;;;;;;;;;;5055464;28;19924;-63
2024/02/24 16:01:25;;;;;;;;;;;;;;;;;;5055288;28;19979;-63
2024/02/24 16:03:51;;;;;;;;;;;;;;;;;;5049190;28;19979;-63
2024/02/24 16:06:18;;;;;;;;;;;;;;;;;;5053435;28;19974;-63
2024/02/24 16:08:44;;;;;;;;;;;;;;;;;;5054763;28;19924;-63
2024/02/24 16:11:10;;;;;;;;;;;;;;;;;;5052571;28;19974;-63
2024/02/24 16:13:36;;;;;;;;;;;;;;;;;;5054134;28;19928;-63
2024/02/24 16:16:06;;;;;;;;;;;;;;;;;;5053817;28;19951;-63
2024/02/24 16:18:33;;;;;;;;;;;;;;;;;;5052503;28;19920;-63
2024/02/24 16:20:59;;;;;;;;;;;;;;;;;;5050961;28;19976;-63
2024/02/24 16:23:25;;;;;;;;;;;;;;;;;;5050464;28;19924;-63
2024/02/24 16:25:51;;;;;;;;;;;;;;;;;;5050063;28;19929;-63
2024/02/24 16:28:16;;;;;;;;;;;;;;;;;;5051787;28;20328;-63
2024/02/24 16:30:42;;;;;;;;;;;;;;;;;;5051768;28;19925;-63
2024/02/24 16:33:08;;;;;;;;;;;;;;;;;;5052230;28;19932;-62
2024/02/24 16:35:35;;;;;;;;;;;;;;;;;;5051425;28;20019;-63
2024/02/24 16:38:01;;;;;;;;;;;;;;;;;;5051433;28;19936;-63